createdAt,value
2023-01-10T00:01:20.878Z,6.96
2023-01-10T00:03:47.580Z,7.02
2023-01-10T00:06:13.981Z,7.05
2023-01-10T00:08:40.460Z,7.03
2023-01-10T00:11:26.820Z,7.02
2023-01-10T00:13:54.568Z,7.06
2023-01-10T00:16:21.863Z,7.07
2023-01-10T00:18:48.916Z,7.07
2023-01-10T00:21:15.529Z,7.03
2023-01-10T00:23:45.858Z,7.02
2023-01-10T00:26:12.396Z,7.02
2023-01-10T00:28:39.351Z,6.99
2023-01-10T00:31:06.919Z,7.02
2023-01-10T00:33:34.768Z,7.00
2023-01-10T00:36:01.524Z,6.96
2023-01-10T00:38:28.503Z,6.95
2023-01-10T00:40:54.950Z,6.96
2023-01-10T00:43:39.978Z,6.93
2023-01-10T00:46:06.383Z,6.92
2023-01-10T00:48:32.812Z,6.92
2023-01-10T00:50:59.268Z,6.92
2023-01-10T00:53:25.780Z,6.96
2023-01-10T00:55:53.554Z,6.93
2023-01-10T01:00:35.930Z,6.99
2023-01-10T01:03:03.376Z,6.99
2023-01-10T01:05:29.806Z,7.00
2023-01-10T01:07:56.293Z,6.97
2023-01-10T01:10:28.837Z,6.99
2023-01-10T01:12:57.806Z,6.99
2023-01-10T01:15:25.419Z,7.00
2023-01-10T01:17:51.821Z,6.97
2023-01-10T01:20:18.771Z,6.95
2023-01-10T01:22:45.436Z,6.92
2023-01-10T01:25:11.909Z,6.92
2023-01-10T01:27:38.346Z,6.96
2023-01-10T01:30:11.197Z,6.97
2023-01-10T01:32:37.804Z,6.99
2023-01-10T01:35:05.975Z,6.97
2023-01-10T01:37:32.522Z,7.00
2023-01-10T01:39:59.151Z,6.95
2023-01-10T01:42:33.281Z,6.92
2023-01-10T01:45:09.069Z,6.91
2023-01-10T01:47:58.694Z,6.89
2023-01-10T01:50:32.494Z,6.92
2023-01-10T01:53:02.031Z,6.93
2023-01-10T01:55:31.426Z,6.91
2023-01-10T01:58:04.322Z,6.91
2023-01-10T02:00:30.798Z,6.97
2023-01-10T02:03:02.944Z,6.96
2023-01-10T02:05:32.760Z,6.89
2023-01-10T02:08:02.177Z,6.86
2023-01-10T02:10:39.282Z,6.84
2023-01-10T02:13:08.249Z,6.85
2023-01-10T02:15:34.716Z,6.91
2023-01-10T02:18:03.495Z,6.86
2023-01-10T02:20:41.647Z,6.89
2023-01-10T02:23:33.922Z,6.85
2023-01-10T02:26:18.665Z,6.84
2023-01-10T02:29:00.353Z,6.78
2023-01-10T02:31:36.607Z,6.74
2023-01-10T02:34:33.573Z,6.71
2023-01-10T02:37:43.447Z,6.69
2023-01-10T02:40:22.754Z,6.74
2023-01-10T02:43:10.276Z,6.67
2023-01-10T02:45:44.101Z,6.68
2023-01-10T02:48:10.967Z,6.72
2023-01-10T02:50:50.872Z,6.74
2023-01-10T02:53:47.168Z,6.75
2023-01-10T02:56:25.728Z,6.74
2023-01-10T02:59:12.754Z,6.78
2023-01-10T03:02:07.987Z,6.75
2023-01-10T03:04:45.574Z,6.74
2023-01-10T03:07:43.046Z,6.69
2023-01-10T03:10:19.226Z,6.71
2023-01-10T03:13:01.614Z,6.63
2023-01-10T03:15:31.561Z,6.68
2023-01-10T03:18:01.818Z,6.60
2023-01-10T03:20:32.069Z,6.60
2023-01-10T03:23:02.934Z,6.58
2023-01-10T03:25:34.231Z,6.60
2023-01-10T03:28:08.275Z,6.54
2023-01-10T03:30:47.090Z,6.56
2023-01-10T03:33:18.206Z,6.51
2023-01-10T03:36:04.877Z,6.51
2023-01-10T03:38:55.226Z,6.58
2023-01-10T03:41:39.231Z,6.58
2023-01-10T03:44:36.660Z,6.61
2023-01-10T03:47:21.718Z,6.55
2023-01-10T03:49:53.864Z,6.54
2023-01-10T03:52:21.202Z,6.54
2023-01-10T03:54:48.292Z,6.45
2023-01-10T03:57:17.492Z,6.42
2023-01-10T03:59:44.313Z,6.38
2023-01-10T04:02:11.424Z,6.33
2023-01-10T04:04:37.905Z,6.37
2023-01-10T04:07:04.600Z,6.25
2023-01-10T04:09:31.043Z,6.33
2023-01-10T04:11:57.483Z,6.35
2023-01-10T04:14:23.939Z,6.41
2023-01-10T04:16:50.398Z,6.41
2023-01-10T04:19:16.830Z,6.47
2023-01-10T04:21:43.347Z,6.40
2023-01-10T04:24:09.946Z,6.42
2023-01-10T04:26:36.403Z,6.42
2023-01-10T04:29:03.288Z,6.38
2023-01-10T04:31:29.836Z,6.35
2023-01-10T04:33:56.334Z,6.33
2023-01-10T04:36:22.771Z,6.33
2023-01-10T04:38:49.439Z,6.37
2023-01-10T04:41:15.953Z,6.44
2023-01-10T04:43:42.328Z,6.45
2023-01-10T04:46:08.860Z,6.47
2023-01-10T04:48:37.214Z,6.48
2023-01-10T04:51:04.079Z,6.49
2023-01-10T04:53:30.491Z,6.52
2023-01-10T04:56:06.048Z,6.49
2023-01-10T04:58:34.386Z,6.49
2023-01-10T05:01:06.488Z,6.54
2023-01-10T05:03:32.860Z,6.55
2023-01-10T05:05:59.227Z,6.56
2023-01-10T05:08:25.738Z,6.54
2023-01-10T05:10:52.149Z,6.60
2023-01-10T05:13:18.571Z,6.61
2023-01-10T05:15:45.045Z,6.65
2023-01-10T05:18:11.466Z,6.68
2023-01-10T05:20:37.838Z,6.68
2023-01-10T05:23:04.287Z,6.74
2023-01-10T05:25:30.664Z,6.75
2023-01-10T05:27:57.075Z,6.72
2023-01-10T05:30:23.504Z,6.69
2023-01-10T05:32:49.899Z,6.63
2023-01-10T05:35:17.281Z,6.61
2023-01-10T05:37:43.767Z,6.60
2023-01-10T05:40:11.122Z,6.58
2023-01-10T05:42:37.626Z,6.54
2023-01-10T05:45:05.060Z,6.42
2023-01-10T05:47:31.683Z,6.40
2023-01-10T05:49:58.045Z,6.44
2023-01-10T05:52:24.801Z,6.41
2023-01-10T05:54:51.399Z,6.38
2023-01-10T05:57:19.183Z,6.38
2023-01-10T05:59:45.925Z,6.34
2023-01-10T06:02:12.352Z,6.27
2023-01-10T06:04:38.755Z,6.25
2023-01-10T06:07:05.095Z,6.25
2023-01-10T06:09:32.651Z,6.25
2023-01-10T06:11:59.114Z,6.35
2023-01-10T06:14:25.548Z,6.41
2023-01-10T06:16:51.961Z,6.41
2023-01-10T06:19:18.336Z,6.40
2023-01-10T06:21:44.793Z,6.47
2023-01-10T06:24:11.350Z,6.47
2023-01-10T06:26:37.744Z,6.47
2023-01-10T06:29:04.199Z,6.45
2023-01-10T06:31:30.628Z,6.37
2023-01-10T06:33:57.267Z,6.41
2023-01-10T06:36:23.769Z,6.37
2023-01-10T06:38:50.165Z,6.37
2023-01-10T06:41:16.569Z,6.40
2023-01-10T06:43:47.854Z,6.40
2023-01-10T06:46:18.126Z,6.42
2023-01-10T06:48:45.616Z,6.35
2023-01-10T06:51:13.673Z,6.51
2023-01-10T06:53:40.267Z,6.42
2023-01-10T06:56:07.494Z,6.45
2023-01-10T06:58:34.781Z,6.45
2023-01-10T07:01:01.538Z,6.47
2023-01-10T07:03:28.129Z,6.38
2023-01-10T07:05:54.530Z,6.33
2023-01-10T07:08:21.052Z,6.33
2023-01-10T07:10:47.431Z,6.33
2023-01-10T07:13:13.795Z,6.31
2023-01-10T07:15:40.215Z,6.38
2023-01-10T07:18:06.757Z,6.33
2023-01-10T07:20:33.140Z,6.31
2023-01-10T07:23:03.918Z,6.27
2023-01-10T07:25:30.621Z,6.33
2023-01-10T07:27:57.130Z,6.34
2023-01-10T07:32:36.057Z,6.35
2023-01-10T07:35:02.705Z,6.47
2023-01-10T07:37:29.090Z,6.40
2023-01-10T07:39:56.194Z,6.38
2023-01-10T07:42:22.722Z,6.34
2023-01-10T07:44:49.648Z,6.34
2023-01-10T07:47:16.090Z,6.24
2023-01-10T07:49:42.570Z,6.28
2023-01-10T07:52:09.255Z,6.24
2023-01-10T07:54:35.920Z,6.17
2023-01-10T07:57:02.630Z,6.20
2023-01-10T07:59:29.038Z,6.28
2023-01-10T08:01:55.499Z,6.21
2023-01-10T08:04:21.934Z,6.14
2023-01-10T08:06:48.377Z,6.11
2023-01-10T08:09:14.928Z,6.14
2023-01-10T08:11:42.533Z,6.11
2023-01-10T08:14:09.127Z,6.25
2023-01-10T08:16:35.496Z,6.24
2023-01-10T08:19:02.120Z,6.24
2023-01-10T08:21:28.568Z,6.21
2023-01-10T08:23:54.997Z,6.23
2023-01-10T08:26:21.403Z,6.21
2023-01-10T08:28:47.798Z,6.20
2023-01-10T08:31:14.357Z,6.23
2023-01-10T08:33:41.209Z,6.27
2023-01-10T08:36:15.579Z,6.28
2023-01-10T08:38:41.979Z,6.31
2023-01-10T08:41:08.387Z,6.41
2023-01-10T08:43:34.760Z,6.45
2023-01-10T08:46:01.596Z,6.51
2023-01-10T08:48:28.159Z,6.61
2023-01-10T08:50:54.546Z,6.79
2023-01-10T08:53:20.921Z,6.99
2023-01-10T08:55:49.201Z,6.96
2023-01-10T08:58:15.996Z,6.88
2023-01-10T09:00:42.464Z,7.16
2023-01-10T09:03:09.076Z,7.31
2023-01-10T09:05:35.609Z,7.28
2023-01-10T09:08:03.244Z,7.50
2023-01-10T09:10:30.123Z,7.68
2023-01-10T09:12:59.842Z,7.47
2023-01-10T09:15:32.137Z,8.09
2023-01-10T09:18:00.910Z,7.75
2023-01-10T09:20:28.939Z,7.58
2023-01-10T09:22:56.893Z,7.89
2023-01-10T09:25:24.126Z,8.01
2023-01-10T09:27:58.340Z,8.02
2023-01-10T09:30:25.665Z,8.02
2023-01-10T09:32:53.767Z,8.10
2023-01-10T09:35:20.711Z,7.92
2023-01-10T09:37:47.145Z,8.03
2023-01-10T09:40:17.143Z,8.42
2023-01-10T09:42:59.674Z,8.10
2023-01-10T09:45:32.088Z,8.07
2023-01-10T09:48:04.490Z,8.12
2023-01-10T09:50:51.396Z,8.94
2023-01-10T09:53:25.028Z,8.46
2023-01-10T09:55:57.031Z,8.39
2023-01-10T09:58:27.746Z,8.75
2023-01-10T10:00:57.913Z,8.28
2023-01-10T10:03:43.244Z,8.81
2023-01-10T10:06:14.535Z,8.64
2023-01-10T10:08:46.530Z,8.39
2023-01-10T10:11:25.206Z,8.28
2023-01-10T10:14:29.479Z,8.53
2023-01-10T10:16:58.837Z,8.59
2023-01-10T10:19:44.101Z,9.76
2023-01-10T10:22:30.755Z,9.57
2023-01-10T10:25:38.350Z,8.82
2023-01-10T10:28:22.497Z,8.53
2023-01-10T10:31:07.732Z,8.49
2023-01-10T10:33:52.528Z,8.47
2023-01-10T10:36:28.163Z,9.21
2023-01-10T10:38:59.357Z,8.67
2023-01-10T10:41:38.478Z,9.05
2023-01-10T10:44:26.983Z,8.82
2023-01-10T10:46:53.838Z,9.10
2023-01-10T10:49:41.557Z,9.10
2023-01-10T10:52:34.729Z,8.85
2023-01-10T10:55:03.912Z,9.35
2023-01-10T10:57:33.680Z,9.33
2023-01-10T11:00:02.550Z,9.12
2023-01-10T11:02:31.964Z,9.26
2023-01-10T11:05:08.769Z,9.14
2023-01-10T11:07:37.243Z,9.49
2023-01-10T11:10:19.449Z,9.05
2023-01-10T11:12:51.002Z,9.12
2023-01-10T11:15:42.706Z,9.07
2023-01-10T11:18:18.470Z,8.88
2023-01-10T11:20:58.530Z,8.78
2023-01-10T11:23:32.820Z,8.78
2023-01-10T11:25:59.365Z,8.67
2023-01-10T11:28:31.507Z,9.02
2023-01-10T11:30:59.184Z,8.78
2023-01-10T11:33:35.436Z,8.84
2023-01-10T11:36:05.898Z,8.73
2023-01-10T11:38:34.771Z,8.85
2023-01-10T11:41:17.440Z,8.85
2023-01-10T11:43:44.000Z,8.82
2023-01-10T11:46:21.538Z,8.91
2023-01-10T11:49:08.476Z,9.08
2023-01-10T11:51:44.636Z,8.98
2023-01-10T11:54:25.046Z,8.94
2023-01-10T11:56:56.459Z,9.08
2023-01-10T11:59:23.917Z,9.08
2023-01-10T12:02:27.597Z,9.29
2023-01-10T12:04:57.041Z,9.08
2023-01-10T12:07:23.537Z,9.02
2023-01-10T12:10:01.958Z,9.10
2023-01-10T12:12:36.341Z,9.01
2023-01-10T12:15:26.789Z,9.28
2023-01-10T12:17:56.994Z,9.18
2023-01-10T12:20:25.246Z,9.04
2023-01-10T12:22:59.272Z,8.81
2023-01-10T12:25:43.127Z,9.00
2023-01-10T12:28:18.386Z,8.80
2023-01-10T12:30:50.246Z,8.89
2023-01-10T12:33:21.940Z,8.80
2023-01-10T12:36:06.876Z,8.84
2023-01-10T12:38:54.479Z,8.85
2023-01-10T12:41:48.497Z,8.95
2023-01-10T12:44:22.472Z,8.88
2023-01-10T12:47:13.166Z,8.89
2023-01-10T12:49:58.911Z,8.81
2023-01-10T12:52:49.598Z,8.98
2023-01-10T12:55:18.402Z,8.88
2023-01-10T12:57:52.009Z,8.73
2023-01-10T13:00:32.878Z,8.60
2023-01-10T13:03:12.367Z,8.60
2023-01-10T13:05:39.041Z,8.61
2023-01-10T13:08:17.737Z,8.57
2023-01-10T13:10:48.631Z,8.61
2023-01-10T13:13:52.294Z,8.63
2023-01-10T13:16:52.634Z,8.60
2023-01-10T13:19:21.357Z,8.57
2023-01-10T13:21:48.157Z,8.59
2023-01-10T13:24:28.767Z,8.60
2023-01-10T13:26:58.077Z,8.67
2023-01-10T13:29:29.132Z,8.57
2023-01-10T13:31:59.307Z,8.67
2023-01-10T13:34:32.257Z,8.61
2023-01-10T13:37:02.954Z,8.63
2023-01-10T13:39:36.520Z,8.53
2023-01-10T13:42:21.681Z,8.56
2023-01-10T13:45:13.470Z,8.56
2023-01-10T13:47:40.015Z,8.44
2023-01-10T13:50:24.616Z,8.54
2023-01-10T13:52:51.519Z,8.52
2023-01-10T13:55:23.434Z,8.46
2023-01-10T13:57:53.953Z,8.44
2023-01-10T14:01:01.865Z,8.43
2023-01-10T14:03:43.436Z,8.37
2023-01-10T14:06:41.247Z,8.32
2023-01-10T14:09:14.164Z,8.33
2023-01-10T14:11:43.699Z,8.34
2023-01-10T14:14:25.551Z,8.37
2023-01-10T14:16:55.371Z,8.26
2023-01-10T14:19:27.703Z,8.26
2023-01-10T14:21:56.224Z,8.21
2023-01-10T14:24:28.973Z,8.25
2023-01-10T14:27:00.532Z,8.16
2023-01-10T14:29:31.558Z,8.16
2023-01-10T14:32:00.261Z,8.18
2023-01-10T14:34:37.304Z,8.10
2023-01-10T14:37:11.206Z,8.19
2023-01-10T14:39:38.119Z,8.09
2023-01-10T14:42:13.039Z,8.18
2023-01-10T14:44:53.583Z,8.09
2023-01-10T14:47:34.322Z,8.06
2023-01-10T14:50:07.377Z,7.99
2023-01-10T14:52:33.846Z,7.89
2023-01-10T14:55:13.140Z,7.96
2023-01-10T14:57:39.827Z,7.89
2023-01-10T15:00:09.267Z,7.86
2023-01-10T15:02:37.288Z,7.88
2023-01-10T15:05:17.109Z,7.86
2023-01-10T15:07:43.593Z,7.99
2023-01-10T15:10:32.753Z,7.89
2023-01-10T15:13:02.848Z,7.88
2023-01-10T15:15:34.337Z,7.79
2023-01-10T15:18:05.026Z,7.82
2023-01-10T15:20:31.705Z,7.79
2023-01-10T15:23:01.241Z,7.79
2023-01-10T15:25:38.305Z,7.79
2023-01-10T15:28:12.820Z,7.78
2023-01-10T15:30:40.122Z,7.75
2023-01-10T15:33:13.713Z,7.79
2023-01-10T15:35:43.488Z,7.75
2023-01-10T15:38:16.483Z,7.78
2023-01-10T15:40:43.797Z,7.84
2023-01-10T15:43:24.427Z,7.71
2023-01-10T15:45:53.064Z,7.65
2023-01-10T15:48:35.866Z,7.58
2023-01-10T15:51:33.633Z,7.53
2023-01-10T15:54:14.227Z,7.34
2023-01-10T15:56:48.344Z,7.40
2023-01-10T15:59:33.121Z,7.33
2023-01-10T16:02:12.038Z,7.28
2023-01-10T16:04:40.208Z,7.23
2023-01-10T16:07:16.528Z,7.24
2023-01-10T16:09:49.556Z,7.30
2023-01-10T16:12:54.600Z,7.16
2023-01-10T16:15:26.758Z,6.96
2023-01-10T16:17:53.814Z,6.84
2023-01-10T16:20:29.810Z,6.81
2023-01-10T16:22:57.025Z,6.74
2023-01-10T16:25:45.237Z,6.71
2023-01-10T16:28:12.671Z,6.63
2023-01-10T16:30:44.004Z,6.63
2023-01-10T16:33:12.557Z,6.64
2023-01-10T16:35:39.404Z,6.58
2023-01-10T16:38:05.780Z,6.58
2023-01-10T16:40:39.016Z,6.56
2023-01-10T16:43:17.870Z,6.49
2023-01-10T16:45:48.713Z,6.49
2023-01-10T16:48:17.098Z,6.47
2023-01-10T16:50:44.073Z,6.47
2023-01-10T16:53:12.580Z,6.48
2023-01-10T16:55:58.567Z,6.45
2023-01-10T16:58:24.966Z,6.45
2023-01-10T17:00:53.015Z,6.38
2023-01-10T17:03:24.553Z,6.28
2023-01-10T17:05:51.619Z,6.24
2023-01-10T17:08:24.435Z,6.18
2023-01-10T17:10:53.743Z,6.14
2023-01-10T17:13:25.855Z,6.10
2023-01-10T17:15:52.415Z,6.14
2023-01-10T17:18:18.996Z,6.11
2023-01-10T17:20:46.767Z,6.13
2023-01-10T17:23:15.045Z,6.11
2023-01-10T17:25:41.928Z,6.14
2023-01-10T17:28:11.804Z,6.18
2023-01-10T17:30:42.262Z,6.11
2023-01-10T17:33:11.984Z,6.13
2023-01-10T17:35:42.019Z,6.14
2023-01-10T17:38:15.430Z,6.10
2023-01-10T17:40:43.330Z,6.13
2023-01-10T17:43:11.219Z,6.10
2023-01-10T17:45:42.287Z,6.10
2023-01-10T17:48:09.707Z,6.09
2023-01-10T17:50:37.432Z,6.03
2023-01-10T17:53:04.587Z,6.02
2023-01-10T17:55:31.344Z,5.97
2023-01-10T17:57:58.429Z,5.95
2023-01-10T18:00:25.177Z,5.95
2023-01-10T18:02:51.600Z,5.93
2023-01-10T18:05:18.137Z,5.93
2023-01-10T18:07:44.546Z,5.90
2023-01-10T18:10:11.129Z,5.95
2023-01-10T18:12:37.912Z,5.93
2023-01-10T18:15:05.460Z,5.95
2023-01-10T18:17:31.824Z,5.93
2023-01-10T18:19:58.267Z,5.93
2023-01-10T18:22:43.147Z,5.95
2023-01-10T18:25:09.669Z,5.97
2023-01-10T18:27:36.289Z,5.97
2023-01-10T18:30:04.027Z,5.99
2023-01-10T18:32:32.423Z,5.96
2023-01-10T18:34:59.840Z,5.93
2023-01-10T18:37:26.479Z,5.97
2023-01-10T18:39:52.932Z,5.93
2023-01-10T18:42:19.400Z,5.95
2023-01-10T18:44:47.561Z,5.92
2023-01-10T18:47:14.054Z,5.90
2023-01-10T18:49:40.881Z,5.92
2023-01-10T18:52:07.323Z,5.96
2023-01-10T18:57:36.146Z,5.89
2023-01-10T19:00:04.655Z,5.97
2023-01-10T19:02:31.088Z,5.99
2023-01-10T19:04:57.658Z,5.90
2023-01-10T19:07:24.797Z,5.93
2023-01-10T19:09:51.194Z,6.00
2023-01-10T19:12:17.695Z,5.96
2023-01-10T19:14:45.270Z,5.97
2023-01-10T19:17:11.667Z,5.96
2023-01-10T19:19:38.139Z,5.96
2023-01-10T19:22:04.688Z,6.00
2023-01-10T19:24:35.541Z,6.04
2023-01-10T19:27:02.048Z,6.07
2023-01-10T19:29:30.512Z,6.09
2023-01-10T19:31:58.069Z,6.11
2023-01-10T19:34:25.076Z,6.14
2023-01-10T19:36:51.871Z,6.17
2023-01-10T19:39:18.405Z,6.18
2023-01-10T19:41:44.760Z,6.24
2023-01-10T19:44:13.266Z,6.27
2023-01-10T19:46:40.741Z,6.30
2023-01-10T19:49:08.406Z,6.27
2023-01-10T19:51:40.067Z,6.31
2023-01-10T19:54:08.270Z,6.33
2023-01-10T19:56:35.737Z,6.37
2023-01-10T19:59:02.232Z,6.38
2023-01-10T20:01:31.336Z,6.35
2023-01-10T20:04:01.695Z,6.38
2023-01-10T20:06:30.816Z,6.44
2023-01-10T20:08:57.515Z,6.45
2023-01-10T20:11:26.357Z,6.52
2023-01-10T20:13:53.333Z,6.51
2023-01-10T20:16:23.024Z,6.51
2023-01-10T20:18:50.984Z,6.48
2023-01-10T20:21:18.633Z,6.47
2023-01-10T20:23:45.847Z,6.42
2023-01-10T20:26:14.746Z,6.45
2023-01-10T20:28:42.774Z,6.45
2023-01-10T20:31:12.519Z,6.56
2023-01-10T20:33:39.017Z,6.56
2023-01-10T20:36:11.814Z,6.63
2023-01-10T20:38:39.064Z,6.75
2023-01-10T20:41:14.357Z,6.88
2023-01-10T20:43:41.065Z,6.91
2023-01-10T20:46:13.255Z,6.92
2023-01-10T20:48:41.553Z,6.95
2023-01-10T20:51:11.496Z,6.96
2023-01-10T20:53:38.051Z,6.99
2023-01-10T20:56:06.860Z,7.09
2023-01-10T20:58:35.028Z,7.16
2023-01-10T21:01:01.983Z,7.23
2023-01-10T21:03:28.870Z,7.23
2023-01-10T21:05:55.633Z,7.23
2023-01-10T21:08:23.622Z,7.23
2023-01-10T21:10:51.143Z,7.28
2023-01-10T21:13:17.797Z,7.28
2023-01-10T21:15:46.195Z,7.28
2023-01-10T21:18:14.527Z,7.28
2023-01-10T21:20:46.374Z,7.27
2023-01-10T21:23:14.443Z,7.20
2023-01-10T21:25:41.137Z,7.14
2023-01-10T21:28:12.204Z,7.19
2023-01-10T21:30:40.127Z,7.16
2023-01-10T21:33:07.597Z,7.13
2023-01-10T21:35:34.504Z,7.17
2023-01-10T21:38:02.376Z,7.20
2023-01-10T21:40:29.309Z,7.23
2023-01-10T21:42:55.680Z,7.34
2023-01-10T21:45:22.275Z,7.40
2023-01-10T21:47:49.188Z,7.46
2023-01-10T21:50:16.418Z,7.43
2023-01-10T21:52:43.312Z,7.46
2023-01-10T21:55:10.943Z,7.48
2023-01-10T21:57:39.464Z,7.57
2023-01-10T22:00:07.057Z,7.50
2023-01-10T22:02:34.703Z,7.51
2023-01-10T22:05:01.338Z,7.58
2023-01-10T22:07:28.690Z,7.63
2023-01-10T22:09:56.526Z,7.64
2023-01-10T22:12:24.402Z,7.64
2023-01-10T22:14:50.906Z,7.64
2023-01-10T22:17:17.446Z,7.71
2023-01-10T22:19:43.862Z,7.68
2023-01-10T22:22:10.930Z,7.72
2023-01-10T22:24:37.330Z,7.70
2023-01-10T22:27:04.898Z,7.78
2023-01-10T22:29:31.273Z,7.81
2023-01-10T22:31:57.890Z,7.78
2023-01-10T22:34:24.424Z,7.85
2023-01-10T22:36:50.912Z,7.85
2023-01-10T22:39:17.450Z,7.86
2023-01-10T22:41:43.796Z,7.93
2023-01-10T22:44:18.552Z,7.93
2023-01-10T22:46:45.931Z,7.95
2023-01-10T22:49:13.008Z,8.02
2023-01-10T22:51:39.416Z,8.02
2023-01-10T22:54:06.016Z,8.06
2023-01-10T22:56:33.233Z,8.07
2023-01-10T22:58:59.684Z,8.12
2023-01-10T23:01:26.216Z,8.19
2023-01-10T23:03:52.766Z,8.16
2023-01-10T23:06:19.627Z,8.19
2023-01-10T23:08:46.548Z,8.21
2023-01-10T23:11:16.351Z,8.18
2023-01-10T23:13:43.052Z,8.15
2023-01-10T23:16:13.521Z,8.02
2023-01-10T23:18:40.633Z,7.89
2023-01-10T23:21:07.962Z,7.75
2023-01-10T23:23:35.319Z,7.70
2023-01-10T23:26:03.455Z,7.65
2023-01-10T23:28:42.812Z,7.58
2023-01-10T23:31:09.290Z,7.58
2023-01-10T23:33:36.354Z,7.58
2023-01-10T23:36:03.670Z,7.53
2023-01-10T23:38:30.613Z,7.58
2023-01-10T23:40:57.053Z,7.65
2023-01-10T23:43:23.902Z,7.72
2023-01-10T23:45:50.721Z,7.72
2023-01-10T23:48:17.569Z,7.77
2023-01-10T23:50:47.189Z,7.82
2023-01-10T23:53:13.523Z,7.86
2023-01-10T23:55:41.463Z,7.85
2023-01-10T23:58:08.003Z,7.95
